Hauptseite
METAR-TAF:

METAR-TAF

Flughäfen :

Flugfeld Wideawake

Georgetown, Ascension

Breite: 07-58S, Länge: 014-24W, Höhe: 86 m

Beobachtung

Neuester Wetterbericht von vor 3 Stunden und 12 Minuten, um 18:50 UTC
Wind 14 kt aus Süd/Südost
Temperatur 28°C
Luftfeuchtigkeit 74%
Luftdruck 1012 hPa
Sichtweite 10 km oder mehr
Aufgelockert bewölkt in der Höhe von 1800 ft

METAR: FHAW 231850Z 16014KT 9999 SCT018 28/23 Q1012 NOSIG RMK WHT WHT

Zeit: 22:02 (22:02 UTC)

Prognose

Neuester Wetterbericht von vor 5 Stunden und 32 Minuten, um 16:30 UTC
Gültige Prognose vom 23 um 18 UTC bis 24 um 12 UTC
Wind 16 kt aus Süd/Südost
Sichtweite 10 km oder mehr
Leicht bewölkt in der Höhe von 2000 ft
Wahrscheinlichkeit 40% :
Zeitweise
vom 23 um 18 UTC bis 24 um 10 UTC
Sichtweite: 7000 m
Aufgelockert bewölkt in der Höhe von 1800 ft
Regenschauer

TAF: FHAW 231630Z 2318/2412 16016KT 9999 FEW020 PROB40 TEMPO 2318/2410 7000 -SHRA SCT018

Wetterbeobachtungen und Prognosen von mehr als 4000 Flughäfen (METAR und TAF Bericht).

Die verfügbaren Stationen werden durch gelbe und rote Markierungen auf der Karte dargestellt.

Führen Sie die Maus auf sie, um den Namen der Station zu sehen.

Darauf klicken, um die Beobachtung von Wetterbeobachtungen und Prognosen zu sehen.

Um die Karte zu ändern : klicken Sie auf den grünen Tasten mit einem schwarzen Kreuz Zum Vergrößern, auf den grünen Button mit einem Gedankenstrich zu verkleinern, oder auf die grünen Pfeile für benachbarte Karten.


METAR-TAF: